sensor_id;sensor_type;location;lat;lon;timestamp;temperature;humidity
17671;DHT22;8954;48.694;8.940;2022-09-03T00:00:08;16.30;99.90
17671;DHT22;8954;48.694;8.940;2022-09-03T00:02:47;16.30;99.90
17671;DHT22;8954;48.694;8.940;2022-09-03T00:05:22;16.30;99.90
17671;DHT22;8954;48.694;8.940;2022-09-03T00:10:53;16.20;99.90
17671;DHT22;8954;48.694;8.940;2022-09-03T00:13:34;16.20;99.90
17671;DHT22;8954;48.694;8.940;2022-09-03T00:16:05;16.20;99.90
17671;DHT22;8954;48.694;8.940;2022-09-03T00:18:46;16.20;99.90
17671;DHT22;8954;48.694;8.940;2022-09-03T00:21:36;16.10;99.90
17671;DHT22;8954;48.694;8.940;2022-09-03T00:24:04;16.10;99.90
17671;DHT22;8954;48.694;8.940;2022-09-03T00:26:36;16.20;99.90
17671;DHT22;8954;48.694;8.940;2022-09-03T00:31:54;16.20;99.90
17671;DHT22;8954;48.694;8.940;2022-09-03T00:34:34;16.20;99.90
17671;DHT22;8954;48.694;8.940;2022-09-03T00:37:03;16.20;99.90
17671;DHT22;8954;48.694;8.940;2022-09-03T00:39:29;16.20;99.90
17671;DHT22;8954;48.694;8.940;2022-09-03T00:58:35;16.00;99.90
17671;DHT22;8954;48.694;8.940;2022-09-03T01:01:17;16.00;99.90
17671;DHT22;8954;48.694;8.940;2022-09-03T01:07:03;16.00;99.90
17671;DHT22;8954;48.694;8.940;2022-09-03T01:15:03;16.00;99.90
17671;DHT22;8954;48.694;8.940;2022-09-03T01:31:45;15.80;99.90
17671;DHT22;8954;48.694;8.940;2022-09-03T01:46:00;15.70;99.90
17671;DHT22;8954;48.694;8.940;2022-09-03T01:48:44;15.70;99.90
17671;DHT22;8954;48.694;8.940;2022-09-03T01:51:22;15.70;99.90
17671;DHT22;8954;48.694;8.940;2022-09-03T01:57:38;15.60;99.90
17671;DHT22;8954;48.694;8.940;2022-09-03T02:00:05;15.60;99.90
17671;DHT22;8954;48.694;8.940;2022-09-03T02:02:31;15.50;99.90
17671;DHT22;8954;48.694;8.940;2022-09-03T02:05:14;15.50;99.90
17671;DHT22;8954;48.694;8.940;2022-09-03T02:08:04;15.50;99.90
17671;DHT22;8954;48.694;8.940;2022-09-03T02:13:17;15.50;99.90
17671;DHT22;8954;48.694;8.940;2022-09-03T02:15:44;15.50;99.90
17671;DHT22;8954;48.694;8.940;2022-09-03T02:18:22;15.50;99.90
17671;DHT22;8954;48.694;8.940;2022-09-03T02:20:49;15.50;99.90
17671;DHT22;8954;48.694;8.940;2022-09-03T02:23:16;15.40;99.90
17671;DHT22;8954;48.694;8.940;2022-09-03T02:25:46;15.40;99.90
17671;DHT22;8954;48.694;8.940;2022-09-03T02:28:14;15.40;99.90
17671;DHT22;8954;48.694;8.940;2022-09-03T02:30:41;15.40;99.90
17671;DHT22;8954;48.694;8.940;2022-09-03T02:33:06;15.40;99.90
17671;DHT22;8954;48.694;8.940;2022-09-03T02:35:33;15.40;99.90
17671;DHT22;8954;48.694;8.940;2022-09-03T02:38:12;15.40;99.90
17671;DHT22;8954;48.694;8.940;2022-09-03T02:40:38;15.40;99.90
17671;DHT22;8954;48.694;8.940;2022-09-03T02:43:05;15.40;99.90
17671;DHT22;8954;48.694;8.940;2022-09-03T02:45:35;15.40;99.90
17671;DHT22;8954;48.694;8.940;2022-09-03T02:48:02;15.30;99.90
17671;DHT22;8954;48.694;8.940;2022-09-03T02:50:28;15.20;99.90
17671;DHT22;8954;48.694;8.940;2022-09-03T02:52:54;15.20;99.90
17671;DHT22;8954;48.694;8.940;2022-09-03T02:55:20;15.10;99.90
17671;DHT22;8954;48.694;8.940;2022-09-03T02:57:46;15.10;99.90
17671;DHT22;8954;48.694;8.940;2022-09-03T03:00:12;15.10;99.90
17671;DHT22;8954;48.694;8.940;2022-09-03T03:02:38;15.10;99.90
17671;DHT22;8954;48.694;8.940;2022-09-03T03:05:05;15.10;99.90
17671;DHT22;8954;48.694;8.940;2022-09-03T03:07:36;15.00;99.90
17671;DHT22;8954;48.694;8.940;2022-09-03T03:10:03;15.00;99.90
17671;DHT22;8954;48.694;8.940;2022-09-03T03:12:29;15.00;99.90
17671;DHT22;8954;48.694;8.940;2022-09-03T03:14:55;14.90;99.90
17671;DHT22;8954;48.694;8.940;2022-09-03T03:17:20;14.90;99.90
17671;DHT22;8954;48.694;8.940;2022-09-03T03:19:46;14.90;99.90
17671;DHT22;8954;48.694;8.940;2022-09-03T03:22:12;14.90;99.90
17671;DHT22;8954;48.694;8.940;2022-09-03T03:24:37;14.90;99.90
17671;DHT22;8954;48.694;8.940;2022-09-03T03:27:03;14.90;99.90
17671;DHT22;8954;48.694;8.940;2022-09-03T03:29:30;14.90;99.90
17671;DHT22;8954;48.694;8.940;2022-09-03T03:31:56;14.90;99.90
17671;DHT22;8954;48.694;8.940;2022-09-03T03:34:22;14.90;99.90
17671;DHT22;8954;48.694;8.940;2022-09-03T03:36:48;14.80;99.90
17671;DHT22;8954;48.694;8.940;2022-09-03T03:39:13;14.70;99.90
17671;DHT22;8954;48.694;8.940;2022-09-03T03:41:39;14.70;99.90
17671;DHT22;8954;48.694;8.940;2022-09-03T03:44:06;14.70;99.90
17671;DHT22;8954;48.694;8.940;2022-09-03T03:46:35;14.70;99.90
17671;DHT22;8954;48.694;8.940;2022-09-03T03:49:01;14.70;99.90
17671;DHT22;8954;48.694;8.940;2022-09-03T03:51:27;14.70;99.90
17671;DHT22;8954;48.694;8.940;2022-09-03T03:53:56;14.70;99.90
17671;DHT22;8954;48.694;8.940;2022-09-03T03:56:23;14.80;99.90
17671;DHT22;8954;48.694;8.940;2022-09-03T03:58:51;14.80;99.90
17671;DHT22;8954;48.694;8.940;2022-09-03T04:01:22;14.90;99.90
17671;DHT22;8954;48.694;8.940;2022-09-03T04:03:49;14.90;99.90
17671;DHT22;8954;48.694;8.940;2022-09-03T04:06:17;15.00;99.90
17671;DHT22;8954;48.694;8.940;2022-09-03T04:08:44;15.10;99.90
17671;DHT22;8954;48.694;8.940;2022-09-03T04:11:13;15.10;99.90
17671;DHT22;8954;48.694;8.940;2022-09-03T04:13:40;15.20;99.90
17671;DHT22;8954;48.694;8.940;2022-09-03T04:16:12;15.20;99.90
17671;DHT22;8954;48.694;8.940;2022-09-03T04:18:39;15.20;99.90
17671;DHT22;8954;48.694;8.940;2022-09-03T04:21:07;15.20;99.90
17671;DHT22;8954;48.694;8.940;2022-09-03T04:23:39;15.20;99.90
17671;DHT22;8954;48.694;8.940;2022-09-03T04:26:06;15.20;99.90
17671;DHT22;8954;48.694;8.940;2022-09-03T04:28:32;15.20;99.90
17671;DHT22;8954;48.694;8.940;2022-09-03T04:31:03;15.10;99.90
17671;DHT22;8954;48.694;8.940;2022-09-03T04:33:30;15.20;99.90
17671;DHT22;8954;48.694;8.940;2022-09-03T04:38:42;15.40;99.90
17671;DHT22;8954;48.694;8.940;2022-09-03T04:41:20;15.60;99.90
17671;DHT22;8954;48.694;8.940;2022-09-03T04:43:46;15.80;99.90
17671;DHT22;8954;48.694;8.940;2022-09-03T04:46:14;15.80;99.90
17671;DHT22;8954;48.694;8.940;2022-09-03T04:48:42;15.90;99.90
17671;DHT22;8954;48.694;8.940;2022-09-03T04:51:12;15.90;99.90
17671;DHT22;8954;48.694;8.940;2022-09-03T04:53:43;16.00;99.90
17671;DHT22;8954;48.694;8.940;2022-09-03T04:56:17;16.10;99.90
17671;DHT22;8954;48.694;8.940;2022-09-03T04:58:44;16.20;99.90
17671;DHT22;8954;48.694;8.940;2022-09-03T05:01:16;16.20;99.90
17671;DHT22;8954;48.694;8.940;2022-09-03T05:03:42;16.30;99.90
17671;DHT22;8954;48.694;8.940;2022-09-03T05:06:08;16.30;99.90
17671;DHT22;8954;48.694;8.940;2022-09-03T05:08:34;16.30;99.90
17671;DHT22;8954;48.694;8.940;2022-09-03T05:11:04;16.20;99.90
17671;DHT22;8954;48.694;8.940;2022-09-03T05:13:31;16.20;99.90
17671;DHT22;8954;48.694;8.940;2022-09-03T05:16:02;16.20;99.90
17671;DHT22;8954;48.694;8.940;2022-09-03T05:18:28;16.30;99.90
17671;DHT22;8954;48.694;8.940;2022-09-03T05:21:02;16.30;99.90
17671;DHT22;8954;48.694;8.940;2022-09-03T05:23:29;16.40;99.90
17671;DHT22;8954;48.694;8.940;2022-09-03T05:26:01;16.40;99.90
17671;DHT22;8954;48.694;8.940;2022-09-03T05:28:28;16.50;99.90
17671;DHT22;8954;48.694;8.940;2022-09-03T05:31:03;16.60;99.90
17671;DHT22;8954;48.694;8.940;2022-09-03T05:33:32;16.70;99.90
17671;DHT22;8954;48.694;8.940;2022-09-03T05:36:03;16.70;99.90
17671;DHT22;8954;48.694;8.940;2022-09-03T05:38:29;16.80;99.90
17671;DHT22;8954;48.694;8.940;2022-09-03T05:41:03;16.90;99.90
17671;DHT22;8954;48.694;8.940;2022-09-03T05:43:29;16.90;99.90
17671;DHT22;8954;48.694;8.940;2022-09-03T05:46:00;17.00;99.90
17671;DHT22;8954;48.694;8.940;2022-09-03T05:48:26;17.10;99.90
17671;DHT22;8954;48.694;8.940;2022-09-03T05:51:04;17.20;99.90
17671;DHT22;8954;48.694;8.940;2022-09-03T05:53:32;17.30;99.90
17671;DHT22;8954;48.694;8.940;2022-09-03T05:56:09;17.30;99.90
17671;DHT22;8954;48.694;8.940;2022-09-03T05:58:38;17.40;99.90
17671;DHT22;8954;48.694;8.940;2022-09-03T06:01:21;17.40;99.90
17671;DHT22;8954;48.694;8.940;2022-09-03T06:03:53;17.40;99.90
17671;DHT22;8954;48.694;8.940;2022-09-03T06:06:20;17.30;99.90
17671;DHT22;8954;48.694;8.940;2022-09-03T06:08:57;17.30;99.90
17671;DHT22;8954;48.694;8.940;2022-09-03T06:11:24;17.50;99.90
17671;DHT22;8954;48.694;8.940;2022-09-03T06:13:53;17.60;99.90
17671;DHT22;8954;48.694;8.940;2022-09-03T06:16:19;17.80;99.90
17671;DHT22;8954;48.694;8.940;2022-09-03T06:18:46;17.90;99.90
17671;DHT22;8954;48.694;8.940;2022-09-03T06:21:12;18.00;99.90
17671;DHT22;8954;48.694;8.940;2022-09-03T06:23:39;18.10;99.90
17671;DHT22;8954;48.694;8.940;2022-09-03T06:26:11;18.20;99.90
17671;DHT22;8954;48.694;8.940;2022-09-03T06:28:38;18.30;99.90
17671;DHT22;8954;48.694;8.940;2022-09-03T06:31:07;18.50;99.90
17671;DHT22;8954;48.694;8.940;2022-09-03T06:33:35;18.40;99.90
17671;DHT22;8954;48.694;8.940;2022-09-03T06:36:03;18.40;99.90
17671;DHT22;8954;48.694;8.940;2022-09-03T06:38:32;18.50;99.90
17671;DHT22;8954;48.694;8.940;2022-09-03T06:41:01;18.50;99.90
17671;DHT22;8954;48.694;8.940;2022-09-03T06:43:30;18.60;99.90
17671;DHT22;8954;48.694;8.940;2022-09-03T06:46:01;18.60;99.90
17671;DHT22;8954;48.694;8.940;2022-09-03T06:48:30;18.80;99.90
17671;DHT22;8954;48.694;8.940;2022-09-03T06:50:58;18.90;99.90
17671;DHT22;8954;48.694;8.940;2022-09-03T06:53:25;19.00;99.90
17671;DHT22;8954;48.694;8.940;2022-09-03T06:55:55;19.20;99.90
17671;DHT22;8954;48.694;8.940;2022-09-03T06:58:21;19.20;99.90
17671;DHT22;8954;48.694;8.940;2022-09-03T07:00:47;19.40;99.90
17671;DHT22;8954;48.694;8.940;2022-09-03T07:03:14;19.50;99.90
17671;DHT22;8954;48.694;8.940;2022-09-03T07:05:42;19.60;99.90
17671;DHT22;8954;48.694;8.940;2022-09-03T07:08:09;19.90;99.90
17671;DHT22;8954;48.694;8.940;2022-09-03T07:10:38;20.30;99.90
17671;DHT22;8954;48.694;8.940;2022-09-03T07:13:04;20.80;99.90
17671;DHT22;8954;48.694;8.940;2022-09-03T07:15:33;21.00;99.90
17671;DHT22;8954;48.694;8.940;2022-09-03T07:17:59;21.20;99.90
17671;DHT22;8954;48.694;8.940;2022-09-03T07:20:25;21.30;99.90
17671;DHT22;8954;48.694;8.940;2022-09-03T07:22:55;21.30;99.90
17671;DHT22;8954;48.694;8.940;2022-09-03T07:25:23;21.40;99.90
17671;DHT22;8954;48.694;8.940;2022-09-03T07:27:49;21.40;99.90
17671;DHT22;8954;48.694;8.940;2022-09-03T07:30:16;21.50;99.90
17671;DHT22;8954;48.694;8.940;2022-09-03T07:32:44;21.60;99.90
17671;DHT22;8954;48.694;8.940;2022-09-03T07:35:13;21.60;99.90
17671;DHT22;8954;48.694;8.940;2022-09-03T07:37:40;21.50;99.90
17671;DHT22;8954;48.694;8.940;2022-09-03T07:40:08;21.60;99.90
17671;DHT22;8954;48.694;8.940;2022-09-03T07:42:35;21.60;99.90
17671;DHT22;8954;48.694;8.940;2022-09-03T07:45:04;21.70;99.90
17671;DHT22;8954;48.694;8.940;2022-09-03T07:47:34;21.90;99.90
17671;DHT22;8954;48.694;8.940;2022-09-03T07:50:00;22.10;99.90
17671;DHT22;8954;48.694;8.940;2022-09-03T07:52:26;22.20;99.90
17671;DHT22;8954;48.694;8.940;2022-09-03T07:54:52;22.50;99.90
17671;DHT22;8954;48.694;8.940;2022-09-03T07:57:18;22.70;99.90
17671;DHT22;8954;48.694;8.940;2022-09-03T07:59:43;23.00;99.90
17671;DHT22;8954;48.694;8.940;2022-09-03T08:02:09;23.50;99.90
17671;DHT22;8954;48.694;8.940;2022-09-03T08:04:35;24.10;99.90
17671;DHT22;8954;48.694;8.940;2022-09-03T08:07:01;24.70;99.90
17671;DHT22;8954;48.694;8.940;2022-09-03T08:09:28;25.70;99.90
17671;DHT22;8954;48.694;8.940;2022-09-03T08:11:57;26.50;99.90
17671;DHT22;8954;48.694;8.940;2022-09-03T08:14:23;27.10;99.90
17671;DHT22;8954;48.694;8.940;2022-09-03T08:16:49;27.60;99.90
17671;DHT22;8954;48.694;8.940;2022-09-03T09:20:50;25.40;99.90
17671;DHT22;8954;48.694;8.940;2022-09-03T09:25:50;28.60;99.90
17671;DHT22;8954;48.694;8.940;2022-09-03T09:28:21;31.70;94.30
17671;DHT22;8954;48.694;8.940;2022-09-03T09:30:53;33.90;90.00
17671;DHT22;8954;48.694;8.940;2022-09-03T09:33:20;36.70;66.30
17671;DHT22;8954;48.694;8.940;2022-09-03T09:35:48;38.20;66.50
17671;DHT22;8954;48.694;8.940;2022-09-03T09:38:14;37.90;64.90
17671;DHT22;8954;48.694;8.940;2022-09-03T09:40:42;37.20;64.20
17671;DHT22;8954;48.694;8.940;2022-09-03T09:43:13;35.90;61.90
17671;DHT22;8954;48.694;8.940;2022-09-03T09:45:46;35.20;62.90
17671;DHT22;8954;48.694;8.940;2022-09-03T09:51:16;32.00;90.70
17671;DHT22;8954;48.694;8.940;2022-09-03T09:53:42;30.60;71.40
17671;DHT22;8954;48.694;8.940;2022-09-03T09:58:46;29.20;73.70
17671;DHT22;8954;48.694;8.940;2022-09-03T10:01:23;28.80;76.70
17671;DHT22;8954;48.694;8.940;2022-09-03T10:04:00;28.40;77.60
17671;DHT22;8954;48.694;8.940;2022-09-03T10:06:33;28.20;78.40
17671;DHT22;8954;48.694;8.940;2022-09-03T10:09:23;28.40;78.90
17671;DHT22;8954;48.694;8.940;2022-09-03T10:14:57;29.40;78.10
17671;DHT22;8954;48.694;8.940;2022-09-03T10:17:26;29.10;77.20
17671;DHT22;8954;48.694;8.940;2022-09-03T10:26:22;30.60;73.50
17671;DHT22;8954;48.694;8.940;2022-09-03T10:29:02;30.50;74.00
17671;DHT22;8954;48.694;8.940;2022-09-03T10:31:38;30.80;73.10
17671;DHT22;8954;48.694;8.940;2022-09-03T10:46:09;33.30;66.40
17671;DHT22;8954;48.694;8.940;2022-09-03T10:51:27;32.40;67.60
17671;DHT22;8954;48.694;8.940;2022-09-03T10:56:46;30.90;70.20
17671;DHT22;8954;48.694;8.940;2022-09-03T11:02:51;28.80;75.00
17671;DHT22;8954;48.694;8.940;2022-09-03T11:05:01;28.00;77.40
17671;DHT22;8954;48.694;8.940;2022-09-03T11:08:11;27.60;79.60
17671;DHT22;8954;48.694;8.940;2022-09-03T11:10:45;27.20;80.10
17671;DHT22;8954;48.694;8.940;2022-09-03T11:13:29;26.80;82.70
17671;DHT22;8954;48.694;8.940;2022-09-03T11:16:07;26.70;83.60
17671;DHT22;8954;48.694;8.940;2022-09-03T11:21:17;26.10;84.70
17671;DHT22;8954;48.694;8.940;2022-09-03T11:23:47;25.70;86.00
17671;DHT22;8954;48.694;8.940;2022-09-03T11:26:18;25.40;87.60
17671;DHT22;8954;48.694;8.940;2022-09-03T11:32:14;24.70;89.90
17671;DHT22;8954;48.694;8.940;2022-09-03T11:34:49;24.30;90.60
17671;DHT22;8954;48.694;8.940;2022-09-03T11:40:14;23.90;92.50
17671;DHT22;8954;48.694;8.940;2022-09-03T11:42:47;23.70;93.00
17671;DHT22;8954;48.694;8.940;2022-09-03T11:45:32;23.50;94.00
17671;DHT22;8954;48.694;8.940;2022-09-03T11:48:15;23.40;95.80
17671;DHT22;8954;48.694;8.940;2022-09-03T11:50:51;23.20;95.10
17671;DHT22;8954;48.694;8.940;2022-09-03T11:58:41;22.60;98.20
17671;DHT22;8954;48.694;8.940;2022-09-03T12:01:20;21.90;99.90
17671;DHT22;8954;48.694;8.940;2022-09-03T12:03:53;20.60;99.90
17671;DHT22;8954;48.694;8.940;2022-09-03T12:09:01;18.70;99.90
17671;DHT22;8954;48.694;8.940;2022-09-03T12:14:27;17.40;99.90
17671;DHT22;8954;48.694;8.940;2022-09-03T12:19:54;16.40;99.90
17671;DHT22;8954;48.694;8.940;2022-09-03T12:22:26;16.10;99.90
17671;DHT22;8954;48.694;8.940;2022-09-03T12:25:07;16.00;99.90
17671;DHT22;8954;48.694;8.940;2022-09-03T12:27:35;15.90;99.90
17671;DHT22;8954;48.694;8.940;2022-09-03T12:30:04;15.80;99.90
17671;DHT22;8954;48.694;8.940;2022-09-03T12:32:34;15.80;99.90
17671;DHT22;8954;48.694;8.940;2022-09-03T12:35:16;16.00;99.90
17671;DHT22;8954;48.694;8.940;2022-09-03T12:37:45;16.10;99.90
17671;DHT22;8954;48.694;8.940;2022-09-03T12:40:24;16.30;99.90
17671;DHT22;8954;48.694;8.940;2022-09-03T12:42:51;16.50;99.90
17671;DHT22;8954;48.694;8.940;2022-09-03T12:45:20;16.60;99.90
17671;DHT22;8954;48.694;8.940;2022-09-03T12:47:47;16.70;99.90
17671;DHT22;8954;48.694;8.940;2022-09-03T12:50:16;16.90;99.90
17671;DHT22;8954;48.694;8.940;2022-09-03T13:00:55;17.40;99.90
17671;DHT22;8954;48.694;8.940;2022-09-03T13:03:41;18.10;99.90
17671;DHT22;8954;48.694;8.940;2022-09-03T13:06:14;18.50;99.90
17671;DHT22;8954;48.694;8.940;2022-09-03T13:08:46;19.10;99.90
17671;DHT22;8954;48.694;8.940;2022-09-03T13:11:20;19.30;99.90
17671;DHT22;8954;48.694;8.940;2022-09-03T13:13:54;20.00;99.90
17671;DHT22;8954;48.694;8.940;2022-09-03T13:19:13;21.80;99.90
17671;DHT22;8954;48.694;8.940;2022-09-03T13:30:18;22.60;99.90
17671;DHT22;8954;48.694;8.940;2022-09-03T13:35:37;22.30;99.90
17671;DHT22;8954;48.694;8.940;2022-09-03T13:46:52;24.50;99.90
17671;DHT22;8954;48.694;8.940;2022-09-03T13:49:56;24.80;99.90
17671;DHT22;8954;48.694;8.940;2022-09-03T13:55:31;29.20;99.90
17671;DHT22;8954;48.694;8.940;2022-09-03T14:03:55;33.20;84.30
17671;DHT22;8954;48.694;8.940;2022-09-03T14:06:41;33.70;81.90
17671;DHT22;8954;48.694;8.940;2022-09-03T14:12:42;31.50;82.40
17671;DHT22;8954;48.694;8.940;2022-09-03T14:15:17;31.20;83.40
17671;DHT22;8954;48.694;8.940;2022-09-03T14:21:09;30.50;85.40
17671;DHT22;8954;48.694;8.940;2022-09-03T14:29:07;25.70;95.00
17671;DHT22;8954;48.694;8.940;2022-09-03T14:34:33;24.30;99.90
17671;DHT22;8954;48.694;8.940;2022-09-03T14:58:57;25.90;99.90
17671;DHT22;8954;48.694;8.940;2022-09-03T15:01:34;26.20;99.90
17671;DHT22;8954;48.694;8.940;2022-09-03T15:09:46;28.50;99.90
17671;DHT22;8954;48.694;8.940;2022-09-03T15:13:06;32.10;92.10
17671;DHT22;8954;48.694;8.940;2022-09-03T15:15:16;31.90;88.50
17671;DHT22;8954;48.694;8.940;2022-09-03T15:17:53;29.40;92.30
17671;DHT22;8954;48.694;8.940;2022-09-03T15:23:02;26.50;95.70
17671;DHT22;8954;48.694;8.940;2022-09-03T15:31:21;24.60;99.90
17671;DHT22;8954;48.694;8.940;2022-09-03T15:36:26;24.00;99.90
17671;DHT22;8954;48.694;8.940;2022-09-03T15:39:16;23.80;99.90
17671;DHT22;8954;48.694;8.940;2022-09-03T15:41:49;24.00;99.90
17671;DHT22;8954;48.694;8.940;2022-09-03T15:44:18;24.40;99.90
17671;DHT22;8954;48.694;8.940;2022-09-03T15:47:02;25.70;99.90
17671;DHT22;8954;48.694;8.940;2022-09-03T15:52:07;25.20;99.90
17671;DHT22;8954;48.694;8.940;2022-09-03T15:57:09;23.90;99.90
17671;DHT22;8954;48.694;8.940;2022-09-03T15:59:48;23.70;99.90
17671;DHT22;8954;48.694;8.940;2022-09-03T16:02:31;23.50;99.90
17671;DHT22;8954;48.694;8.940;2022-09-03T16:12:58;22.60;99.90
17671;DHT22;8954;48.694;8.940;2022-09-03T16:15:37;22.40;99.90
17671;DHT22;8954;48.694;8.940;2022-09-03T16:21:57;22.30;99.90
17671;DHT22;8954;48.694;8.940;2022-09-03T16:27:36;21.90;99.90
17671;DHT22;8954;48.694;8.940;2022-09-03T16:36:14;21.80;99.90
17671;DHT22;8954;48.694;8.940;2022-09-03T16:39:08;21.80;99.90
17671;DHT22;8954;48.694;8.940;2022-09-03T16:41:42;21.90;99.90
17671;DHT22;8954;48.694;8.940;2022-09-03T16:47:09;22.10;99.90
17671;DHT22;8954;48.694;8.940;2022-09-03T16:55:31;22.50;99.90
17671;DHT22;8954;48.694;8.940;2022-09-03T17:06:50;22.10;99.90
17671;DHT22;8954;48.694;8.940;2022-09-03T17:23:32;21.20;99.90
17671;DHT22;8954;48.694;8.940;2022-09-03T17:29:11;20.70;99.90
17671;DHT22;8954;48.694;8.940;2022-09-03T17:31:55;20.60;99.90
17671;DHT22;8954;48.694;8.940;2022-09-03T17:39:59;20.00;99.90
17671;DHT22;8954;48.694;8.940;2022-09-03T17:42:50;19.90;99.90
17671;DHT22;8954;48.694;8.940;2022-09-03T17:45:35;19.70;99.90
17671;DHT22;8954;48.694;8.940;2022-09-03T18:15:14;18.30;99.90
17671;DHT22;8954;48.694;8.940;2022-09-03T18:20:20;18.00;99.90
17671;DHT22;8954;48.694;8.940;2022-09-03T18:23:28;17.90;99.90
17671;DHT22;8954;48.694;8.940;2022-09-03T18:26:30;17.70;99.90
17671;DHT22;8954;48.694;8.940;2022-09-03T18:32:21;17.50;99.90
17671;DHT22;8954;48.694;8.940;2022-09-03T18:35:08;17.40;99.90
17671;DHT22;8954;48.694;8.940;2022-09-03T18:37:52;17.40;99.90
17671;DHT22;8954;48.694;8.940;2022-09-03T18:41:05;17.30;99.90
17671;DHT22;8954;48.694;8.940;2022-09-03T18:46:58;17.10;99.90
17671;DHT22;8954;48.694;8.940;2022-09-03T18:50:15;17.10;99.90
17671;DHT22;8954;48.694;8.940;2022-09-03T18:53:13;17.00;99.90
17671;DHT22;8954;48.694;8.940;2022-09-03T18:56:08;16.90;99.90
17671;DHT22;8954;48.694;8.940;2022-09-03T19:02:45;16.70;99.90
17671;DHT22;8954;48.694;8.940;2022-09-03T19:06:17;16.70;99.90
17671;DHT22;8954;48.694;8.940;2022-09-03T19:15:36;16.50;99.90
17671;DHT22;8954;48.694;8.940;2022-09-03T19:18:51;16.40;99.90
17671;DHT22;8954;48.694;8.940;2022-09-03T19:21:38;16.40;99.90
17671;DHT22;8954;48.694;8.940;2022-09-03T19:24:29;16.40;99.90
17671;DHT22;8954;48.694;8.940;2022-09-03T19:30:26;16.20;99.90
17671;DHT22;8954;48.694;8.940;2022-09-03T19:33:20;16.10;99.90
17671;DHT22;8954;48.694;8.940;2022-09-03T19:36:40;16.10;99.90
17671;DHT22;8954;48.694;8.940;2022-09-03T19:52:12;16.00;99.90
17671;DHT22;8954;48.694;8.940;2022-09-03T19:55:01;16.10;99.90
17671;DHT22;8954;48.694;8.940;2022-09-03T19:57:52;16.10;99.90
17671;DHT22;8954;48.694;8.940;2022-09-03T20:00:38;16.10;99.90
17671;DHT22;8954;48.694;8.940;2022-09-03T20:03:24;16.00;99.90
17671;DHT22;8954;48.694;8.940;2022-09-03T20:06:11;16.00;99.90
17671;DHT22;8954;48.694;8.940;2022-09-03T20:09:00;16.00;99.90
17671;DHT22;8954;48.694;8.940;2022-09-03T20:11:47;15.90;99.90
17671;DHT22;8954;48.694;8.940;2022-09-03T20:14:15;15.80;99.90
17671;DHT22;8954;48.694;8.940;2022-09-03T20:20:02;15.70;99.90
17671;DHT22;8954;48.694;8.940;2022-09-03T20:23:06;15.60;99.90
17671;DHT22;8954;48.694;8.940;2022-09-03T20:26:00;15.70;99.90
17671;DHT22;8954;48.694;8.940;2022-09-03T20:29:06;15.70;99.90
17671;DHT22;8954;48.694;8.940;2022-09-03T20:42:45;16.10;99.90
17671;DHT22;8954;48.694;8.940;2022-09-03T20:45:24;16.20;99.90
17671;DHT22;8954;48.694;8.940;2022-09-03T20:56:17;16.50;99.90
17671;DHT22;8954;48.694;8.940;2022-09-03T21:01:37;16.60;99.90
17671;DHT22;8954;48.694;8.940;2022-09-03T21:05:02;16.70;99.90
17671;DHT22;8954;48.694;8.940;2022-09-03T21:10:57;16.80;99.90
17671;DHT22;8954;48.694;8.940;2022-09-03T21:19:10;16.90;99.90
17671;DHT22;8954;48.694;8.940;2022-09-03T21:24:51;17.00;99.90
17671;DHT22;8954;48.694;8.940;2022-09-03T21:27:44;17.00;99.90
17671;DHT22;8954;48.694;8.940;2022-09-03T21:30:14;17.00;99.90
17671;DHT22;8954;48.694;8.940;2022-09-03T21:37:36;16.90;99.90
17671;DHT22;8954;48.694;8.940;2022-09-03T21:40:07;16.80;99.90
17671;DHT22;8954;48.694;8.940;2022-09-03T21:42:40;16.80;99.90
17671;DHT22;8954;48.694;8.940;2022-09-03T21:48:02;16.70;99.90
17671;DHT22;8954;48.694;8.940;2022-09-03T21:50:52;16.70;99.90
17671;DHT22;8954;48.694;8.940;2022-09-03T22:04:46;16.30;99.90
17671;DHT22;8954;48.694;8.940;2022-09-03T22:07:24;16.30;99.90
17671;DHT22;8954;48.694;8.940;2022-09-03T22:12:45;16.10;99.90
17671;DHT22;8954;48.694;8.940;2022-09-03T22:15:19;16.00;99.90
17671;DHT22;8954;48.694;8.940;2022-09-03T22:17:54;15.90;99.90
17671;DHT22;8954;48.694;8.940;2022-09-03T22:20:27;15.80;99.90
17671;DHT22;8954;48.694;8.940;2022-09-03T22:22:58;15.80;99.90
17671;DHT22;8954;48.694;8.940;2022-09-03T22:28:24;15.70;99.90
17671;DHT22;8954;48.694;8.940;2022-09-03T22:31:16;15.70;99.90
17671;DHT22;8954;48.694;8.940;2022-09-03T22:36:52;15.70;99.90
17671;DHT22;8954;48.694;8.940;2022-09-03T22:39:34;15.60;99.90
17671;DHT22;8954;48.694;8.940;2022-09-03T22:45:21;15.50;99.90
17671;DHT22;8954;48.694;8.940;2022-09-03T22:48:18;15.40;99.90
17671;DHT22;8954;48.694;8.940;2022-09-03T22:50:57;15.40;99.90
17671;DHT22;8954;48.694;8.940;2022-09-03T22:53:33;15.30;99.90
17671;DHT22;8954;48.694;8.940;2022-09-03T22:56:07;15.30;99.90
17671;DHT22;8954;48.694;8.940;2022-09-03T22:58:46;15.20;99.90
17671;DHT22;8954;48.694;8.940;2022-09-03T23:01:20;15.10;99.90
17671;DHT22;8954;48.694;8.940;2022-09-03T23:03:57;15.10;99.90
17671;DHT22;8954;48.694;8.940;2022-09-03T23:06:43;15.00;99.90
17671;DHT22;8954;48.694;8.940;2022-09-03T23:09:20;15.00;99.90
17671;DHT22;8954;48.694;8.940;2022-09-03T23:11:53;15.00;99.90
17671;DHT22;8954;48.694;8.940;2022-09-03T23:14:35;14.90;99.90
17671;DHT22;8954;48.694;8.940;2022-09-03T23:17:12;14.90;99.90
17671;DHT22;8954;48.694;8.940;2022-09-03T23:19:45;14.80;99.90
17671;DHT22;8954;48.694;8.940;2022-09-03T23:22:14;14.80;99.90
17671;DHT22;8954;48.694;8.940;2022-09-03T23:24:46;14.80;99.90
17671;DHT22;8954;48.694;8.940;2022-09-03T23:27:17;14.70;99.90
17671;DHT22;8954;48.694;8.940;2022-09-03T23:29:55;14.70;99.90
17671;DHT22;8954;48.694;8.940;2022-09-03T23:32:22;14.60;99.90
17671;DHT22;8954;48.694;8.940;2022-09-03T23:34:47;14.60;99.90
17671;DHT22;8954;48.694;8.940;2022-09-03T23:43:56;14.40;99.90
